Time;durP1;ratioP1;P1;durP2;ratioP2;P2;SDS_P1;SDS_P2;PMS_P1;PMS_P2;Temp;Humidity;BMP_temperature;BMP_pressure;BME280_temperature;BME280_humidity;BME280_pressure;Samples;Min_cycle;Max_cycle;Signal;HPM_P1;HPM_P2
2022/10/17 00:00:52;;;;;;;5.60;1.70;;;;;;;14.78;93.27;100779.97;5014519;28;20247;-76
2022/10/17 00:03:18;;;;;;;3.30;1.80;;;;;;;14.83;92.74;100801.72;5014418;28;20210;-75
2022/10/17 00:05:47;;;;;;;3.13;1.90;;;;;;;14.86;92.79;100806.88;5014309;28;20244;-75
2022/10/17 00:08:15;;;;;;;8.50;2.20;;;;;;;14.82;92.61;100807.03;5014662;28;20213;-75
2022/10/17 00:10:42;;;;;;;2.37;1.33;;;;;;;14.87;92.72;100807.75;5014196;28;20260;-75
2022/10/17 00:13:11;;;;;;;5.00;1.77;;;;;;;14.83;92.59;100817.50;5014496;28;20215;-75
2022/10/17 00:15:38;;;;;;;3.80;1.57;;;;;;;14.83;92.84;100814.03;5013952;28;20689;-75
2022/10/17 00:18:04;;;;;;;13.47;2.70;;;;;;;14.84;93.09;100808.69;5014165;28;20208;-75
2022/10/17 00:20:31;;;;;;;7.57;1.83;;;;;;;14.81;93.47;100793.03;5013827;28;20256;-75
2022/10/17 00:22:58;;;;;;;3.07;1.80;;;;;;;14.82;93.79;100783.38;5014286;28;20214;-75
2022/10/17 00:25:24;;;;;;;1.77;1.47;;;;;;;14.80;93.87;100780.78;5013565;28;20232;-75
2022/10/17 00:27:51;;;;;;;5.80;1.53;;;;;;;14.78;94.03;100772.09;5013920;28;20223;-75
2022/10/17 00:30:19;;;;;;;8.77;1.57;;;;;;;14.81;93.92;100769.38;5013404;28;20204;-75
2022/10/17 00:32:45;;;;;;;7.20;1.70;;;;;;;14.82;93.65;100765.84;5014058;28;20236;-75
2022/10/17 00:35:12;;;;;;;9.40;1.70;;;;;;;14.81;93.67;100768.53;5013710;28;20224;-75
2022/10/17 00:37:38;;;;;;;7.03;2.13;;;;;;;14.82;93.75;100772.88;5014022;28;20213;-75
2022/10/17 00:40:06;;;;;;;6.67;2.37;;;;;;;14.80;94.00;100767.66;5013678;28;20233;-75
2022/10/17 00:42:33;;;;;;;7.27;2.20;;;;;;;14.75;94.03;100763.47;5013945;28;20209;-75
2022/10/17 00:45:08;;;;;;;8.97;2.97;;;;;;;14.73;94.49;100753.00;5013581;28;20217;-75
2022/10/17 00:47:37;;;;;;;3.80;1.60;;;;;;;14.73;94.89;100746.88;5013834;28;20190;-75
2022/10/17 00:50:04;;;;;;;4.80;1.90;;;;;;;14.69;95.36;100744.34;5013287;28;20204;-75
2022/10/17 00:52:32;;;;;;;2.23;1.90;;;;;;;14.63;97.02;100715.63;5013620;28;20224;-76
2022/10/17 00:55:02;;;;;;;6.63;1.90;;;;;;;14.62;97.73;100700.78;5013576;28;20212;-75
2022/10/17 00:57:31;;;;;;;5.80;1.73;;;;;;;14.60;98.50;100689.44;5013705;28;20199;-75
2022/10/17 01:00:01;;;;;;;3.50;1.70;;;;;;;14.62;99.15;100676.28;5013119;28;20261;-75
2022/10/17 01:02:28;;;;;;;3.93;2.00;;;;;;;14.64;98.69;100677.09;5012869;28;20228;-75
2022/10/17 01:04:59;;;;;;;3.67;2.07;;;;;;;14.62;98.35;100687.63;5013231;28;20225;-75
2022/10/17 01:07:27;;;;;;;8.37;1.80;;;;;;;14.64;97.86;100698.94;5013289;28;20562;-75
2022/10/17 01:09:53;;;;;;;1.93;1.83;;;;;;;14.63;97.77;100713.00;5013310;28;20290;-75
2022/10/17 01:12:23;;;;;;;4.57;2.30;;;;;;;14.61;97.86;100713.97;5013144;28;20216;-75
2022/10/17 01:15:06;;;;;;;8.13;2.43;;;;;;;14.66;97.33;100722.56;5013023;28;20205;-75
2022/10/17 01:17:40;;;;;;;2.57;1.60;;;;;;;14.66;97.34;100720.78;5013206;28;20202;-75
2022/10/17 01:20:35;;;;;;;3.80;1.60;;;;;;;14.68;96.89;100731.25;5013006;28;20612;-75
2022/10/17 01:23:18;;;;;;;3.43;1.67;;;;;;;14.67;96.33;100746.16;5012817;28;20214;-75
2022/10/17 01:25:53;;;;;;;4.93;1.90;;;;;;;14.66;96.42;100741.81;5012780;28;20236;-75
2022/10/17 01:28:38;;;;;;;4.37;2.00;;;;;;;14.67;95.78;100756.69;5012843;28;20204;-75
2022/10/17 01:31:11;;;;;;;9.33;1.80;;;;;;;14.67;95.74;100755.81;5012382;28;20664;-75
2022/10/17 01:33:51;;;;;;;4.77;1.83;;;;;;;14.66;95.66;100756.72;5013021;28;20197;-75
2022/10/17 01:36:27;;;;;;;6.73;1.90;;;;;;;14.64;95.46;100772.53;5012864;28;20232;-75
2022/10/17 01:39:02;;;;;;;5.57;1.97;;;;;;;14.60;95.27;100770.03;5012847;28;20666;-75
2022/10/17 01:41:37;;;;;;;9.63;3.10;;;;;;;14.55;95.38;100770.16;5011559;28;20212;-76
2022/10/17 01:44:10;;;;;;;5.70;1.60;;;;;;;14.54;95.09;100771.03;5012661;28;20204;-75
2022/10/17 01:46:39;;;;;;;5.43;1.60;;;;;;;14.56;95.07;100765.75;5012602;28;20228;-75
2022/10/17 01:49:09;;;;;;;4.50;1.77;;;;;;;14.55;95.21;100764.03;5012692;28;20209;-75
2022/10/17 01:51:39;;;;;;;9.50;1.90;;;;;;;14.49;95.23;100759.84;5012546;28;20204;-75
2022/10/17 01:54:13;;;;;;;4.27;1.67;;;;;;;14.49;95.16;100757.22;5012499;28;20543;-76
2022/10/17 01:56:41;;;;;;;7.20;2.03;;;;;;;14.50;95.38;100757.13;5012333;28;20230;-75
2022/10/17 01:59:12;;;;;;;5.27;1.83;;;;;;;14.49;95.44;100749.34;5012181;28;20712;-76
2022/10/17 02:01:43;;;;;;;3.17;1.57;;;;;;;14.49;95.77;100744.06;5012346;28;20221;-75
2022/10/17 02:04:11;;;;;;;12.33;2.00;;;;;;;14.49;95.67;100744.06;5012161;28;20222;-75
2022/10/17 02:06:38;;;;;;;7.07;1.80;;;;;;;14.49;95.46;100738.81;5012537;28;20232;-75
2022/10/17 02:09:17;;;;;;;9.67;1.93;;;;;;;14.49;95.62;100742.31;5012062;28;20299;-75
2022/10/17 02:11:50;;;;;;;6.23;1.80;;;;;;;14.40;96.53;100725.97;5011967;28;20201;-75
2022/10/17 02:14:29;;;;;;;6.13;1.60;;;;;;;14.39;96.58;100717.22;5012535;28;20213;-75
2022/10/17 02:17:08;;;;;;;2.80;1.43;;;;;;;14.39;96.46;100716.34;5011798;28;20233;-75
2022/10/17 02:19:43;;;;;;;3.63;3.17;;;;;;;14.33;99.54;100661.38;5012325;28;20188;-75
2022/10/17 02:22:21;;;;;;;3.60;1.77;;;;;;;14.35;99.45;100649.94;5011949;28;20199;-75
2022/10/17 02:24:52;;;;;;;4.10;1.70;;;;;;;14.33;99.03;100648.25;5012118;28;20212;-76
2022/10/17 02:27:31;;;;;;;3.43;1.77;;;;;;;14.35;98.41;100656.94;5012340;28;20196;-75
2022/10/17 02:30:06;;;;;;;3.00;2.30;;;;;;;14.38;98.36;100664.75;5011904;28;20208;-75
2022/10/17 02:32:42;;;;;;;3.53;1.67;;;;;;;14.38;98.14;100667.38;5011951;28;20246;-75
2022/10/17 02:35:13;;;;;;;5.63;1.80;;;;;;;14.37;98.34;100665.63;5011837;28;20608;-76
2022/10/17 02:37:43;;;;;;;2.77;2.47;;;;;;;14.40;99.83;100652.41;5012265;28;20197;-75
2022/10/17 02:40:13;;;;;;;2.77;1.80;;;;;;;14.44;100.00;100635.66;5011777;28;20271;-75
2022/10/17 02:42:43;;;;;;;3.20;1.83;;;;;;;14.46;99.69;100647.81;5011792;28;20204;-75
2022/10/17 02:45:11;;;;;;;2.27;2.07;;;;;;;14.48;99.17;100655.66;5011742;28;20773;-75
2022/10/17 02:47:50;;;;;;;2.57;2.37;;;;;;;14.46;98.91;100666.22;5011799;28;20216;-75
2022/10/17 02:50:18;;;;;;;2.20;2.10;;;;;;;14.45;98.14;100685.53;5011647;28;20668;-75
2022/10/17 02:52:50;;;;;;;2.63;2.30;;;;;;;14.45;98.00;100693.41;5013767;28;20701;-75
2022/10/17 02:55:19;;;;;;;6.80;2.33;;;;;;;14.40;97.56;100697.06;5015358;28;20228;-75
2022/10/17 02:57:50;;;;;;;2.93;2.00;;;;;;;14.36;97.52;100695.44;5015923;28;20605;-76
2022/10/17 03:00:19;;;;;;;4.50;1.70;;;;;;;14.36;97.39;100704.19;5015609;28;20219;-75
2022/10/17 03:02:49;;;;;;;2.10;2.00;;;;;;;14.35;98.44;100691.09;5015662;28;20220;-76
2022/10/17 03:05:19;;;;;;;1.60;1.50;;;;;;;14.35;98.09;100697.22;5015419;28;20245;-75
2022/10/17 03:07:45;;;;;;;2.00;1.90;;;;;;;14.35;97.90;100698.97;5015637;28;20227;-75
2022/10/17 03:10:12;;;;;;;2.97;2.20;;;;;;;14.30;99.19;100681.59;5015236;28;20205;-75
2022/10/17 03:12:38;;;;;;;9.23;3.10;;;;;;;14.27;99.64;100655.44;5015669;28;20208;-76
2022/10/17 03:15:06;;;;;;;3.77;1.87;;;;;;;14.30;99.12;100660.56;5015168;28;20209;-76
2022/10/17 03:17:33;;;;;;;1.70;1.47;;;;;;;14.35;99.00;100656.94;5015619;28;20209;-75
2022/10/17 03:20:00;;;;;;;1.93;1.50;;;;;;;14.32;99.24;100668.41;5014626;28;20218;-76
2022/10/17 03:22:27;;;;;;;1.97;1.87;;;;;;;14.32;100.00;100631.66;5015103;28;20246;-75
2022/10/17 03:24:53;;;;;;;4.63;1.97;;;;;;;14.38;100.00;100605.19;5015284;28;20223;-75
2022/10/17 03:27:20;;;;;;;2.47;2.20;;;;;;;14.46;100.00;100611.06;5015263;28;20211;-76
2022/10/17 03:29:46;;;;;;;2.20;2.03;;;;;;;14.50;100.00;100614.44;5014656;28;20670;-75
2022/10/17 03:32:13;;;;;;;4.60;2.27;;;;;;;14.49;100.00;100616.22;5015209;28;20207;-75
2022/10/17 03:34:39;;;;;;;2.10;2.00;;;;;;;14.54;100.00;100618.69;5015193;28;20212;-75
2022/10/17 03:37:07;;;;;;;2.40;2.20;;;;;;;14.61;100.00;100619.41;5014815;28;20244;-75
2022/10/17 03:39:34;;;;;;;5.63;2.47;;;;;;;14.59;100.00;100619.44;5015062;28;20205;-75
2022/10/17 03:42:00;;;;;;;2.90;2.30;;;;;;;14.61;100.00;100628.13;5014686;28;20224;-76
2022/10/17 03:44:27;;;;;;;2.67;2.10;;;;;;;14.63;100.00;100631.56;5014805;28;20216;-75
2022/10/17 03:46:53;;;;;;;2.43;2.23;;;;;;;14.67;100.00;100627.94;5014609;28;20581;-75
2022/10/17 03:49:20;;;;;;;5.10;2.40;;;;;;;14.74;100.00;100639.09;5014640;28;20208;-75
2022/10/17 03:51:46;;;;;;;2.47;1.93;;;;;;;14.78;100.00;100624.94;5014265;28;20216;-76
2022/10/17 03:54:14;;;;;;;3.00;2.70;;;;;;;14.84;100.00;100614.22;5014661;28;20678;-75
2022/10/17 03:56:41;;;;;;;2.50;2.40;;;;;;;14.88;100.00;100610.59;5014202;28;20228;-75
2022/10/17 03:59:07;;;;;;;2.30;2.10;;;;;;;14.90;100.00;100602.63;5014810;28;20209;-75
2022/10/17 04:01:34;;;;;;;3.20;2.23;;;;;;;14.91;100.00;100606.16;5014117;28;20229;-76
2022/10/17 04:04:01;;;;;;;2.40;2.20;;;;;;;14.92;100.00;100616.56;5013267;28;20316;-75
2022/10/17 04:06:27;;;;;;;10.03;3.00;;;;;;;14.81;100.00;100619.59;5014558;28;20234;-75
2022/10/17 04:08:54;;;;;;;2.37;2.13;;;;;;;14.81;100.00;100627.47;5014682;28;20220;-75
2022/10/17 04:11:22;;;;;;;4.33;2.70;;;;;;;14.84;100.00;100631.75;5014115;28;20205;-75
2022/10/17 04:13:53;;;;;;;5.10;2.03;;;;;;;14.81;100.00;100635.34;5014252;28;20220;-76
2022/10/17 04:16:20;;;;;;;6.13;2.57;;;;;;;14.82;100.00;100639.69;5014410;28;20296;-75
2022/10/17 04:18:46;;;;;;;7.07;2.30;;;;;;;14.74;100.00;100652.22;5014038;28;20217;-76
2022/10/17 04:21:13;;;;;;;4.40;2.00;;;;;;;14.74;100.00;100649.59;5013687;28;20598;-75
2022/10/17 04:23:40;;;;;;;3.53;2.00;;;;;;;14.69;100.00;100662.91;5014024;28;20214;-75
2022/10/17 04:26:07;;;;;;;2.87;2.40;;;;;;;14.74;100.00;100648.75;5013850;28;20229;-75
2022/10/17 04:28:36;;;;;;;5.77;2.40;;;;;;;14.73;100.00;100641.75;5014077;28;20214;-75
2022/10/17 04:31:04;;;;;;;2.50;2.30;;;;;;;14.82;100.00;100642.31;5013634;28;20687;-76
2022/10/17 04:33:32;;;;;;;4.13;2.80;;;;;;;14.86;100.00;100648.34;5014189;28;20217;-75
2022/10/17 04:35:59;;;;;;;6.50;2.33;;;;;;;14.84;100.00;100656.25;5013693;28;20232;-75
2022/10/17 04:38:27;;;;;;;2.70;2.20;;;;;;;14.86;100.00;100669.34;5014128;28;20212;-75
2022/10/17 04:40:54;;;;;;;2.40;2.20;;;;;;;14.91;100.00;100658.72;5013687;28;20243;-76
2022/10/17 04:43:21;;;;;;;4.37;2.43;;;;;;;14.99;100.00;100660.16;5013669;28;20209;-76
2022/10/17 04:45:49;;;;;;;2.40;2.20;;;;;;;15.02;100.00;100667.06;5013807;28;20261;-75
2022/10/17 04:48:15;;;;;;;3.77;2.60;;;;;;;15.08;100.00;100673.00;5013571;28;20217;-76
2022/10/17 04:50:42;;;;;;;2.50;2.37;;;;;;;15.12;100.00;100676.38;5013456;28;20224;-75
2022/10/17 04:53:08;;;;;;;2.80;2.50;;;;;;;15.16;100.00;100675.34;5013390;28;20205;-75
2022/10/17 04:55:38;;;;;;;2.33;2.07;;;;;;;15.22;100.00;100692.69;5013572;28;20233;-75
2022/10/17 04:58:04;;;;;;;3.43;2.60;;;;;;;15.26;100.00;100695.19;5013290;28;20259;-75
2022/10/17 05:00:31;;;;;;;2.30;2.13;;;;;;;15.28;100.00;100693.34;5013060;28;20232;-76
2022/10/17 05:02:59;;;;;;;2.50;2.30;;;;;;;15.36;100.00;100705.38;5013338;28;20221;-75
2022/10/17 05:07:53;;;;;;;3.10;2.40;;;;;;;15.43;100.00;100725.31;4964368;28;20215;-76
2022/10/17 05:10:19;;;;;;;2.53;2.40;;;;;;;15.45;100.00;100729.59;4954626;29;20298;-77
2022/10/17 05:12:47;;;;;;;1.80;1.70;;;;;;;15.50;100.00;100729.44;4954967;29;20205;-77
2022/10/17 05:15:13;;;;;;;4.37;2.50;;;;;;;15.57;100.00;100730.09;4954893;28;20228;-77
2022/10/17 05:17:40;;;;;;;1.90;1.80;;;;;;;15.56;100.00;100729.22;4955049;29;20226;-77
2022/10/17 05:20:09;;;;;;;2.40;2.17;;;;;;;15.57;100.00;100733.56;4954302;29;20237;-77
2022/10/17 05:22:36;;;;;;;2.30;2.20;;;;;;;15.51;100.00;100736.41;4954856;29;20228;-77
2022/10/17 05:25:02;;;;;;;2.10;1.90;;;;;;;15.45;100.00;100729.59;4954867;28;20226;-78
2022/10/17 05:27:29;;;;;;;2.37;2.17;;;;;;;15.47;100.00;100722.50;4954700;29;20218;-78
2022/10/17 05:29:55;;;;;;;2.83;2.63;;;;;;;15.49;100.00;100725.09;4954498;29;20210;-78
2022/10/17 05:32:22;;;;;;;4.60;2.30;;;;;;;15.47;100.00;100727.75;4954573;29;20235;-78
2022/10/17 05:34:48;;;;;;;5.10;2.50;;;;;;;15.48;100.00;100723.38;4954298;28;20701;-77
2022/10/17 05:37:16;;;;;;;5.10;2.30;;;;;;;15.46;100.00;100728.69;4954491;29;20218;-77
2022/10/17 05:39:43;;;;;;;2.70;2.30;;;;;;;15.50;100.00;100726.81;4954360;29;20212;-77
2022/10/17 05:42:09;;;;;;;2.53;2.33;;;;;;;15.57;100.00;100740.59;4953987;29;20231;-77
2022/10/17 05:44:38;;;;;;;3.00;2.50;;;;;;;15.54;100.00;100741.59;4954421;29;20212;-76
2022/10/17 05:47:04;;;;;;;3.37;2.70;;;;;;;15.54;100.00;100740.69;4954051;28;20231;-77
2022/10/17 05:49:31;;;;;;;2.73;2.27;;;;;;;15.57;100.00;100752.00;4954479;29;20296;-77
2022/10/17 05:51:57;;;;;;;2.30;2.20;;;;;;;15.66;100.00;100753.47;4954138;29;20232;-77
2022/10/17 05:54:25;;;;;;;4.00;2.53;;;;;;;15.69;100.00;100759.44;4953334;29;20674;-77
2022/10/17 05:56:52;;;;;;;2.87;2.60;;;;;;;15.69;100.00;100762.06;4952444;28;20235;-77
2022/10/17 05:59:18;;;;;;;2.60;2.40;;;;;;;15.71;100.00;100767.28;4952249;29;20262;-77
2022/10/17 06:01:45;;;;;;;4.30;2.83;;;;;;;15.72;100.00;100779.56;4951912;29;20237;-76
2022/10/17 06:04:11;;;;;;;3.00;2.67;;;;;;;15.71;100.00;100776.97;4952185;29;20211;-77
2022/10/17 06:06:39;;;;;;;4.00;2.43;;;;;;;15.75;100.00;100778.63;4952205;28;20240;-76
2022/10/17 06:09:06;;;;;;;4.80;2.67;;;;;;;15.74;100.00;100775.13;4952808;29;20234;-77
2022/10/17 06:11:35;;;;;;;3.93;2.60;;;;;;;15.72;100.00;100774.28;4944878;29;20219;-76
2022/10/17 06:14:01;;;;;;;2.83;2.10;;;;;;;15.73;100.00;100780.44;4944323;29;20203;-76
2022/10/17 06:16:28;;;;;;;3.30;2.80;;;;;;;15.74;100.00;100775.13;4945158;29;20247;-77
2022/10/17 06:18:54;;;;;;;2.87;2.67;;;;;;;15.83;100.00;100779.19;4953722;29;20670;-76
2022/10/17 06:21:23;;;;;;;3.30;2.50;;;;;;;15.76;100.00;100794.38;4953657;29;20233;-77
2022/10/17 06:23:50;;;;;;;3.30;2.60;;;;;;;15.82;100.00;100793.28;4953021;29;20226;-77
2022/10/17 06:26:17;;;;;;;3.30;2.50;;;;;;;15.81;100.00;100791.56;4953439;29;20234;-77
2022/10/17 06:28:44;;;;;;;6.17;2.97;;;;;;;15.83;100.00;100795.00;4953666;29;20280;-77
2022/10/17 06:31:16;;;;;;;2.80;2.60;;;;;;;15.80;100.00;100789.84;4953654;29;20215;-76
2022/10/17 06:33:43;;;;;;;2.73;2.53;;;;;;;15.91;99.73;100797.38;4953680;29;20580;-76
2022/10/17 06:36:13;;;;;;;3.33;2.87;;;;;;;15.95;99.25;100805.09;4953321;29;20235;-76
2022/10/17 06:38:40;;;;;;;3.17;2.50;;;;;;;15.99;98.92;100813.75;4954029;29;20254;-78
2022/10/17 06:41:09;;;;;;;2.93;2.60;;;;;;;16.04;98.43;100817.94;4953246;29;20214;-77
2022/10/17 06:43:36;;;;;;;2.97;2.60;;;;;;;16.12;98.16;100827.34;4953822;29;20205;-77
2022/10/17 06:46:05;;;;;;;3.47;2.40;;;;;;;16.14;97.41;100847.44;4953455;29;20621;-77
2022/10/17 06:48:32;;;;;;;3.10;2.80;;;;;;;16.25;97.52;100849.69;4954213;29;20253;-77
2022/10/17 06:50:59;;;;;;;2.83;2.63;;;;;;;16.22;97.09;100866.47;4953852;29;20211;-78
2022/10/17 06:53:27;;;;;;;2.90;2.10;;;;;;;16.32;97.10;100852.97;4953822;29;20286;-77
2022/10/17 06:55:56;;;;;;;4.60;2.50;;;;;;;16.32;96.86;100855.59;4953768;29;20328;-78
2022/10/17 06:58:23;;;;;;;3.97;2.53;;;;;;;16.34;96.55;100880.13;4954027;29;20211;-77
2022/10/17 07:00:50;;;;;;;5.13;2.57;;;;;;;16.36;96.49;100870.38;4952904;29;20205;-77
2022/10/17 07:03:17;;;;;;;2.53;2.33;;;;;;;16.39;96.83;100865.00;4953198;29;20235;-77
2022/10/17 07:05:51;;;;;;;2.90;2.70;;;;;;;16.43;96.33;100883.28;4943862;29;20231;-77
2022/10/17 07:08:17;;;;;;;2.93;2.33;;;;;;;16.46;96.23;100887.56;4945445;29;20205;-75
2022/10/17 07:10:44;;;;;;;3.03;2.83;;;;;;;16.41;97.07;100865.78;4953553;29;20215;-76
2022/10/17 07:13:10;;;;;;;3.23;2.93;;;;;;;16.43;96.51;100872.75;4964268;29;20205;-80
2022/10/17 07:15:37;;;;;;;4.73;2.70;;;;;;;16.40;96.42;100869.34;4957981;29;20743;-77
2022/10/17 07:18:04;;;;;;;4.30;2.60;;;;;;;16.43;95.92;100880.66;4956431;29;20216;-79
2022/10/17 07:20:33;;;;;;;2.33;2.20;;;;;;;16.46;95.51;100904.25;4961702;29;20713;-80
2022/10/17 07:22:59;;;;;;;3.50;2.53;;;;;;;16.50;96.14;100894.44;4962774;29;20229;-79
2022/10/17 07:25:27;;;;;;;3.70;2.83;;;;;;;16.47;96.43;100884.00;4963983;29;20233;-79
2022/10/17 07:27:53;;;;;;;4.23;2.50;;;;;;;16.51;96.75;100879.50;4962958;29;20216;-81
2022/10/17 07:30:20;;;;;;;8.13;3.03;;;;;;;16.50;97.20;100865.47;4962139;28;20216;-79
2022/10/17 07:32:47;;;;;;;6.37;2.93;;;;;;;16.46;97.23;100859.44;4964431;29;20216;-80
2022/10/17 07:35:14;;;;;;;5.63;2.80;;;;;;;16.53;97.29;100862.72;4962890;29;20229;-81
2022/10/17 07:37:42;;;;;;;5.00;2.73;;;;;;;16.57;97.42;100859.06;4964083;28;20209;-81
2022/10/17 07:40:10;;;;;;;3.90;2.50;;;;;;;16.56;98.13;100849.41;4966267;29;20227;-79
2022/10/17 07:42:37;;;;;;;3.80;2.57;;;;;;;16.62;98.91;100841.28;4965587;29;20228;-80
2022/10/17 07:45:05;;;;;;;2.90;2.60;;;;;;;16.67;96.86;100865.72;4964599;28;20220;-79
2022/10/17 07:47:34;;;;;;;3.97;2.77;;;;;;;16.80;96.22;100889.81;4966095;28;20244;-79
2022/10/17 07:50:01;;;;;;;4.77;3.23;;;;;;;16.91;94.78;100922.84;4966073;29;20361;-80
2022/10/17 07:52:27;;;;;;;3.77;3.40;;;;;;;17.00;94.85;100927.78;4966249;29;20232;-81
2022/10/17 07:54:55;;;;;;;3.33;3.03;;;;;;;17.01;94.18;100940.94;4966819;29;20216;-79
2022/10/17 07:57:22;;;;;;;3.23;2.90;;;;;;;17.07;94.68;100940.69;4965894;29;20209;-80
2022/10/17 07:59:50;;;;;;;3.57;2.67;;;;;;;17.12;94.93;100937.88;4968660;29;20689;-77
2022/10/17 08:02:22;;;;;;;3.43;3.13;;;;;;;17.16;94.99;100928.06;4967628;29;20233;-80
2022/10/17 08:04:49;;;;;;;5.73;3.10;;;;;;;17.20;94.31;100943.72;4969473;29;20244;-81
2022/10/17 08:07:15;;;;;;;3.00;2.80;;;;;;;17.23;94.54;100946.25;4968348;29;20238;-81
2022/10/17 08:09:42;;;;;;;3.20;2.90;;;;;;;17.24;94.30;100947.09;4967892;29;20702;-82
2022/10/17 08:12:10;;;;;;;8.43;2.77;;;;;;;17.20;95.46;100925.25;4969023;29;20211;-81
2022/10/17 08:14:38;;;;;;;5.03;3.30;;;;;;;17.20;95.27;100912.06;4964497;29;20563;-81
2022/10/17 08:17:04;;;;;;;10.30;2.97;;;;;;;17.19;94.70;100933.25;4963490;28;20273;-83
2022/10/17 08:19:31;;;;;;;2.97;2.67;;;;;;;17.29;94.34;100939.03;4964359;29;20221;-82
2022/10/17 08:21:58;;;;;;;2.67;2.47;;;;;;;17.30;93.78;100941.59;4963286;29;20262;-81
2022/10/17 08:24:25;;;;;;;3.83;2.83;;;;;;;17.35;92.70;100976.59;4963633;29;20219;-80
2022/10/17 08:26:52;;;;;;;10.50;3.07;;;;;;;17.40;96.02;100905.13;4963293;29;20239;-81
2022/10/17 08:29:20;;;;;;;5.10;3.07;;;;;;;17.37;98.37;100853.34;4963384;29;20212;-81
2022/10/17 08:31:46;;;;;;;4.20;2.97;;;;;;;17.29;97.88;100852.81;4962442;29;20209;-81
2022/10/17 08:34:14;;;;;;;3.30;2.67;;;;;;;17.31;95.55;100858.03;4961577;29;20205;-80
2022/10/17 08:36:41;;;;;;;7.60;3.23;;;;;;;17.43;94.83;100912.94;4961987;29;20239;-81
2022/10/17 08:39:08;;;;;;;4.17;2.87;;;;;;;17.52;93.50;100935.47;4961169;29;20216;-80
2022/10/17 08:41:46;;;;;;;7.83;2.63;;;;;;;17.57;94.88;100915.03;4962757;29;20213;-83
2022/10/17 08:44:25;;;;;;;14.10;3.00;;;;;;;17.62;96.36;100886.66;4963841;29;20682;-82
2022/10/17 08:46:57;;;;;;;4.10;3.00;;;;;;;17.59;98.38;100836.63;4963264;28;20728;-81
2022/10/17 08:49:34;;;;;;;7.50;3.43;;;;;;;17.64;97.82;100861.94;4960287;28;20332;-81
2022/10/17 08:52:07;;;;;;;5.30;3.17;;;;;;;17.69;98.12;100845.88;4958664;29;20208;-80
2022/10/17 08:54:41;;;;;;;5.33;3.17;;;;;;;17.73;94.78;100894.16;4959809;29;20666;-81
2022/10/17 08:57:12;;;;;;;4.70;2.77;;;;;;;17.86;94.53;100932.38;4961373;29;20233;-80
2022/10/17 08:59:40;;;;;;;3.20;2.60;;;;;;;17.93;98.07;100869.56;4962112;29;20284;-80
2022/10/17 09:02:22;;;;;;;2.67;2.47;;;;;;;17.96;94.91;100891.44;4961819;29;20239;-78
2022/10/17 09:05:02;;;;;;;3.10;2.83;;;;;;;18.04;91.33;100975.66;4962606;29;20220;-81
2022/10/17 09:07:37;;;;;;;2.70;2.50;;;;;;;18.24;88.09;101064.66;4961769;29;20581;-80
2022/10/17 09:10:11;;;;;;;4.73;2.57;;;;;;;18.37;91.42;101013.00;4960569;29;20220;-80
2022/10/17 09:12:43;;;;;;;7.57;2.70;;;;;;;18.45;92.37;100994.16;4962035;29;20698;-81
2022/10/17 09:15:37;;;;;;;4.83;3.00;;;;;;;18.58;92.94;100954.84;4960416;29;20226;-79
2022/10/17 09:18:12;;;;;;;7.67;3.63;;;;;;;18.59;90.35;101005.03;4960776;29;20215;-79
2022/10/17 09:20:43;;;;;;;6.60;2.77;;;;;;;18.67;89.04;101023.19;4959352;29;20205;-82
2022/10/17 09:23:15;;;;;;;4.90;2.87;;;;;;;18.78;87.58;101081.78;4959435;29;20285;-81
2022/10/17 09:25:44;;;;;;;2.50;2.30;;;;;;;18.84;83.77;101144.16;4961787;29;20317;-82
2022/10/17 09:28:16;;;;;;;2.70;2.50;;;;;;;18.96;85.32;101163.97;4959335;29;20235;-82
2022/10/17 09:30:46;;;;;;;2.83;2.63;;;;;;;19.04;85.50;101149.47;4959716;29;20217;-81
2022/10/17 09:33:15;;;;;;;5.33;2.70;;;;;;;19.12;86.65;101120.03;4961276;29;20210;-81
2022/10/17 09:35:42;;;;;;;2.70;2.50;;;;;;;19.19;86.22;101110.91;4961006;29;20241;-81
2022/10/17 09:38:16;;;;;;;2.30;2.10;;;;;;;19.23;85.37;101115.13;4960946;29;20220;-80
2022/10/17 09:40:44;;;;;;;4.00;2.77;;;;;;;19.24;83.97;101148.59;4961329;29;20211;-82
2022/10/17 09:43:13;;;;;;;2.90;2.40;;;;;;;19.30;84.12;101160.72;4962024;28;20235;-82
2022/10/17 09:45:45;;;;;;;6.20;2.50;;;;;;;19.23;80.88;101234.25;4962168;28;20225;-81
2022/10/17 09:48:23;;;;;;;3.63;2.50;;;;;;;19.30;80.56;101265.75;4961832;29;20214;-82
2022/10/17 09:50:49;;;;;;;4.77;2.40;;;;;;;19.33;81.23;101247.94;4961892;29;20226;-82
2022/10/17 09:53:22;;;;;;;4.40;2.40;;;;;;;19.41;81.29;101244.97;4962618;29;20212;-81
2022/10/17 09:55:54;;;;;;;4.67;2.50;;;;;;;19.49;81.52;101228.75;4961850;29;20312;-81
2022/10/17 09:58:21;;;;;;;3.47;2.33;;;;;;;19.58;82.08;101212.44;4962727;29;20880;-82
2022/10/17 10:00:49;;;;;;;3.63;2.33;;;;;;;19.62;78.17;101293.50;4961469;28;20273;-81
2022/10/17 10:03:19;;;;;;;4.33;2.87;;;;;;;19.73;80.19;101272.75;4961368;29;20312;-82
2022/10/17 10:06:01;;;;;;;4.67;2.10;;;;;;;19.72;77.24;101316.06;4961340;29;20230;-81
2022/10/17 10:08:30;;;;;;;2.63;2.43;;;;;;;19.79;78.58;101319.31;4961231;29;20209;-80
2022/10/17 10:10:59;;;;;;;2.70;2.50;;;;;;;19.78;77.74;101330.81;4960852;29;20240;-80
2022/10/17 10:13:27;;;;;;;3.67;2.77;;;;;;;19.83;78.24;101303.19;4961379;29;20576;-80
2022/10/17 10:15:53;;;;;;;6.43;2.70;;;;;;;19.82;78.14;101305.91;4958788;29;20221;-80
2022/10/17 10:18:33;;;;;;;3.37;2.73;;;;;;;19.84;78.72;101274.91;4960050;29;20694;-83
2022/10/17 10:21:10;;;;;;;3.00;2.37;;;;;;;19.81;78.37;101286.50;4960706;29;20210;-81
2022/10/17 10:23:39;;;;;;;2.10;2.00;;;;;;;19.79;77.23;101298.09;4962013;29;20225;-80
2022/10/17 10:26:21;;;;;;;2.47;2.30;;;;;;;19.87;76.92;101281.88;4960833;29;20240;-83
2022/10/17 10:28:54;;;;;;;2.77;2.23;;;;;;;19.97;78.47;101281.38;4960569;28;20207;-81
2022/10/17 10:31:33;;;;;;;2.57;2.00;;;;;;;20.05;77.37;101283.69;4960735;29;20208;-81
2022/10/17 10:34:12;;;;;;;6.37;2.63;;;;;;;20.08;77.13;101275.63;4960948;29;20208;-81
2022/10/17 10:36:45;;;;;;;4.03;2.80;;;;;;;20.15;76.96;101308.00;4959347;29;20229;-81
2022/10/17 10:39:32;;;;;;;4.10;2.50;;;;;;;20.21;75.39;101352.78;4957963;29;20225;-80
2022/10/17 10:41:59;;;;;;;2.80;2.30;;;;;;;20.23;73.92;101380.94;4958535;29;20209;-83
2022/10/17 10:44:28;;;;;;;2.77;2.20;;;;;;;20.33;73.69;101407.06;4959792;29;20234;-80
2022/10/17 10:47:24;;;;;;;3.97;2.60;;;;;;;20.42;75.41;101365.09;4959740;29;20752;-80
2022/10/17 10:50:08;;;;;;;2.30;2.10;;;;;;;20.48;73.88;101389.63;4936132;29;20853;-82
2022/10/17 10:52:42;;;;;;;3.57;2.30;;;;;;;20.53;71.55;101424.75;4958487;29;20215;-81
2022/10/17 10:55:21;;;;;;;2.77;2.17;;;;;;;20.58;72.47;101452.78;4958637;29;20235;-80
2022/10/17 10:57:50;;;;;;;2.43;2.23;;;;;;;20.63;71.81;101485.31;4958779;29;20206;-80
2022/10/17 11:00:21;;;;;;;3.57;2.73;;;;;;;20.66;73.29;101448.97;4958124;28;20216;-80
2022/10/17 11:02:54;;;;;;;3.53;2.43;;;;;;;20.72;71.64;101459.31;4958917;28;20226;-80
2022/10/17 11:05:33;;;;;;;2.93;2.47;;;;;;;20.79;70.78;101477.53;4959911;29;20239;-80
2022/10/17 11:08:06;;;;;;;3.13;2.47;;;;;;;20.83;70.82;101479.13;4958741;28;20208;-81
2022/10/17 11:10:41;;;;;;;2.63;2.40;;;;;;;20.91;70.51;101493.81;4957869;28;20586;-81
2022/10/17 11:13:13;;;;;;;2.57;2.30;;;;;;;20.99;72.49;101455.41;4959148;28;20206;-81
2022/10/17 11:15:46;;;;;;;2.47;2.37;;;;;;;20.98;72.08;101463.44;4962113;29;20230;-81
2022/10/17 11:18:22;;;;;;;2.73;2.27;;;;;;;20.98;71.57;101453.66;4961708;29;20218;-81
2022/10/17 11:20:56;;;;;;;3.67;2.60;;;;;;;21.07;71.55;101462.13;4961526;29;20211;-80
2022/10/17 11:23:28;;;;;;;2.50;2.30;;;;;;;21.12;71.04;101434.44;4963691;29;20238;-79
2022/10/17 11:25:59;;;;;;;2.07;1.97;;;;;;;21.21;68.49;101511.00;4962102;29;20228;-80
2022/10/17 11:28:25;;;;;;;3.90;2.40;;;;;;;21.35;69.29;101526.31;4961324;29;20598;-80
2022/10/17 11:30:57;;;;;;;2.60;2.40;;;;;;;21.32;67.73;101515.81;4960509;29;20304;-80
2022/10/17 11:33:29;;;;;;;2.73;2.47;;;;;;;21.41;68.37;101539.28;4961660;29;20220;-81
2022/10/17 11:36:04;;;;;;;3.57;2.17;;;;;;;21.45;68.50;101545.38;4958653;29;20235;-81